Burg Feuerstein Airport


Codes: EDQE/
Name: Burg Feuerstein Airport
City: Ebermannstadt
Country: Germany
Elevation: 1673 ft.

Photos at Burg Feuerstein Airport


   Photos courtesy of SpottingLog. You can add your own sightings and photos by signing up for a free trial today.



No photos found.

Weather at Burg Feuerstein Airport


Time (UTC)DescriptionTempratureWindCloud coverageVisibilityPressureHumidity
25-Jun-2024 15:00Clear Sky26°C11 mph, E3%10000m1013hPa39%
25-Jun-2024 18:00Clear Sky24°C9 mph, NE1%10000m1012hPa55%
25-Jun-2024 21:00Clear Sky18°C7 mph, NE0%10000m1011hPa79%
26-Jun-2024 00:00Clear Sky17°C4 mph, NE0%10000m1011hPa90%
26-Jun-2024 03:00Clear Sky16°C4 mph, NE0%10000m1010hPa96%
26-Jun-2024 06:00Clear Sky20°C4 mph, E3%10000m1010hPa78%
26-Jun-2024 09:00Few Clouds26°C4 mph, E21%10000m1010hPa55%
26-Jun-2024 12:00Scattered Clouds29°C4 mph, E30%10000m1009hPa43%
26-Jun-2024 15:00Broken Clouds27°C4 mph, SE67%10000m1008hPa52%
26-Jun-2024 18:00Light Rain22°C2 mph, E84%10000m1008hPa73%
26-Jun-2024 21:00Light Rain18°C2 mph, N33%10000m1009hPa93%
27-Jun-2024 00:00Light Rain17°C2 mph, E63%10000m1009hPa94%
27-Jun-2024 03:00Light Rain17°C2 mph, S92%10000m1009hPa97%
27-Jun-2024 06:00Broken Clouds20°C2 mph, S84%10000m1009hPa91%
27-Jun-2024 09:00Overcast Clouds25°C4 mph, SW90%10000m1009hPa65%
27-Jun-2024 12:00Light Rain26°C7 mph, W92%10000m1009hPa58%
27-Jun-2024 15:00Light Rain27°C9 mph, W99%10000m1009hPa60%
27-Jun-2024 18:00Light Rain23°C4 mph, SW86%10000m1010hPa86%
27-Jun-2024 21:00Few Clouds19°C4 mph, SW21%10000m1012hPa94%
28-Jun-2024 00:00Few Clouds17°C4 mph, S17%10000m1012hPa98%
28-Jun-2024 03:00Scattered Clouds17°C4 mph, SW37%10000m1014hPa98%
28-Jun-2024 06:00Broken Clouds20°C7 mph, SW66%10000m1015hPa88%
28-Jun-2024 09:00Clear Sky25°C9 mph, W2%10000m1015hPa62%
28-Jun-2024 12:00Light Rain25°C9 mph, W37%9542m1016hPa69%
28-Jun-2024 15:00Light Rain25°C7 mph, W100%10000m1017hPa68%
28-Jun-2024 18:00Light Rain23°C2 mph, NW85%10000m1017hPa81%
28-Jun-2024 21:00Clear Sky19°C2 mph, E7%10000m1018hPa93%
29-Jun-2024 00:00Clear Sky18°C2 mph, E5%10000m1017hPa95%
29-Jun-2024 03:00Clear Sky18°C4 mph, E2%10000m1016hPa96%
29-Jun-2024 06:00Few Clouds22°C4 mph, E16%10000m1014hPa80%
29-Jun-2024 09:00Overcast Clouds28°C7 mph, SE93%10000m1013hPa55%
29-Jun-2024 12:00Overcast Clouds32°C9 mph, SE94%10000m1010hPa39%
29-Jun-2024 15:00Overcast Clouds33°C7 mph, SE100%10000m1007hPa36%
29-Jun-2024 18:00Broken Clouds28°C9 mph, E81%10000m1004hPa64%
29-Jun-2024 21:00Moderate Rain18°C13 mph, W89%3686m1009hPa96%
30-Jun-2024 00:00Heavy Intensity Rain17°C4 mph, S95%10000m1008hPa97%
30-Jun-2024 03:00Broken Clouds17°C7 mph, S58%10000m1008hPa97%
30-Jun-2024 06:00Broken Clouds19°C9 mph, SW54%10000m1009hPa91%
30-Jun-2024 09:00Light Rain20°C16 mph, SW85%10000m1010hPa73%
30-Jun-2024 12:00Light Rain17°C11 mph, W88%10000m1012hPa76%